Time;durP1;ratioP1;P1;durP2;ratioP2;P2;SDS_P1;SDS_P2;PMS_P1;PMS_P2;Temp;Humidity;BMP_temperature;BMP_pressure;BME280_temperature;BME280_humidity;BME280_pressure;Samples;Min_cycle;Max_cycle;Signal;HPM_P1;HPM_P2
2022/03/28 00:08:18;;;;;;;2.40;1.60;;;;;;;;;;20859206;28;20235;-65
2022/03/28 00:18:21;;;;;;;2.60;1.60;;;;;;;;;;20873801;28;20709;-65
2022/03/28 00:28:23;;;;;;;2.10;1.63;;;;;;;;;;20856005;28;20206;-65
2022/03/28 00:38:25;;;;;;;4.00;1.70;;;;;;;;;;20872456;28;20226;-65
2022/03/28 00:48:27;;;;;;;2.63;1.80;;;;;;;;;;20855653;28;20259;-65
2022/03/28 00:58:29;;;;;;;2.10;1.50;;;;;;;;;;20909310;22;20702;-64
2022/03/28 01:08:33;;;;;;;2.53;1.60;;;;;;;;;;21089744;28;20238;-62
2022/03/28 01:18:35;;;;;;;2.17;1.40;;;14.10;99.90;;;;;;21120767;28;20215;-62
2022/03/28 01:28:36;;;;;;;1.83;1.17;;;;;;;;;;21197564;27;20259;-62
2022/03/28 01:38:38;;;;;;;4.30;1.47;;;;;;;;;;21197195;27;20500;-62
2022/03/28 01:48:40;;;;;;;1.87;1.40;;;;;;;;;;21202636;27;20268;-62
2022/03/28 01:58:42;;;;;;;2.47;1.70;;;;;;;;;;21179101;27;20215;-63
2022/03/28 02:08:44;;;;;;;2.23;1.30;;;;;;;;;;21149489;28;20208;-63
2022/03/28 02:18:46;;;;;;;2.70;1.57;;;;;;;;;;21130244;28;20245;-63
2022/03/28 02:28:47;;;;;;;3.60;1.40;;;;;;;;;;21147926;28;20257;-63
2022/03/28 02:38:49;;;;;;;2.47;1.20;;;;;;;;;;21147586;28;20272;-63
2022/03/28 02:48:52;;;;;;;2.30;1.30;;;;;;;;;;21130127;28;20620;-63
2022/03/28 02:58:53;;;;;;;2.00;1.33;;;;;;;;;;21152038;27;20267;-64
2022/03/28 03:08:55;;;;;;;2.47;1.50;;;;;;;;;;21212823;27;20747;-64
2022/03/28 03:18:57;;;;;;;2.43;1.53;;;;;;;;;;21194629;27;20219;-64
2022/03/28 03:28:59;;;;;;;3.10;1.63;;;;;;;;;;21211192;27;20266;-64
2022/03/28 03:39:02;;;;;;;2.70;1.40;;;12.30;99.90;;;;;;21186541;27;20697;-63
2022/03/28 03:49:04;;;;;;;2.73;1.53;;;;;;;;;;21209191;27;20203;-63
2022/03/28 03:59:06;;;;;;;2.93;1.67;;;;;;;;;;21184678;27;20235;-63
2022/03/28 04:09:08;;;;;;;2.50;1.50;;;;;;;;;;21191575;27;20287;-63
2022/03/28 04:19:10;;;;;;;2.47;1.73;;;;;;;;;;21190291;27;20685;-63
2022/03/28 04:29:12;;;;;;;4.17;2.30;;;;;;;;;;21190499;27;20207;-64
2022/03/28 04:39:14;;;;;;;3.20;1.90;;;;;;;;;;21191485;27;20273;-63
2022/03/28 04:49:15;;;;;;;2.57;1.60;;;;;;;;;;21207358;27;20206;-64
2022/03/28 04:59:18;;;;;;;4.23;1.40;;;;;;;;;;21221800;27;20256;-64
2022/03/28 05:09:20;;;;;;;3.23;1.80;;;;;;;;;;21205187;27;20208;-64
2022/03/28 05:19:21;;;;;;;2.87;1.70;;;;;;;;;;21204818;27;20219;-64
2022/03/28 05:29:24;;;;;;;2.63;1.40;;;;;;;;;;21196213;27;20215;-64
2022/03/28 05:39:27;;;;;;;4.50;1.67;;;10.70;99.90;;;;;;21219378;27;20239;-63
2022/03/28 05:49:33;;;;;;;3.70;1.77;;;;;;;;;;21203371;27;20627;-64
2022/03/28 05:59:34;;;;;;;2.00;1.33;;;10.40;99.90;;;;;;21172183;27;20264;-64
2022/03/28 06:09:38;;;;;;;3.27;2.03;;;;;;;;;;21149012;28;20686;-64
2022/03/28 06:19:40;;;;;;;3.40;1.87;;;;;;;;;;21148262;28;20747;-63
2022/03/28 06:29:42;;;;;;;3.27;1.93;;;;;;;;;;21148413;28;20204;-63
2022/03/28 06:39:44;;;;;;;6.63;1.70;;;;;;;;;;21130632;28;20212;-63
2022/03/28 06:49:46;;;;;;;3.17;1.87;;;;;;;;;;21146512;28;20224;-63
2022/03/28 06:59:48;;;;;;;3.03;1.97;;;;;;;;;;21181114;22;20224;-62
2022/03/28 07:09:50;;;;;;;2.90;1.83;;;;;;;;;;21127215;28;20674;-63
2022/03/28 07:19:52;;;;;;;4.60;2.40;;;;;;;;;;21127474;28;20273;-63
2022/03/28 07:29:54;;;;;;;2.87;2.03;;;;;;;;;;21122343;28;20223;-63
2022/03/28 07:39:57;;;;;;;3.53;2.20;;;13.50;99.90;;;;;;21118364;28;20669;-63
2022/03/28 07:49:59;;;;;;;3.27;2.00;;;;;;;;;;21105827;28;20212;-63
2022/03/28 08:00:04;;;;;;;3.63;2.20;;;14.30;99.90;;;;;;21121829;28;20299;-63
2022/03/28 08:10:14;;;;;;;4.07;2.60;;;;;;;;;;21129516;28;20730;-63
2022/03/28 08:20:16;;;;;;;4.87;2.80;;;;;;;;;;21119831;28;20220;-63
2022/03/28 08:30:18;;;;;;;3.87;2.07;;;;;;;;;;21058690;28;20208;-63
2022/03/28 08:40:20;;;;;;;3.43;2.33;;;;;;;;;;21112660;28;20589;-62
2022/03/28 08:50:22;;;;;;;4.10;2.57;;;;;;;;;;21110796;28;20269;-62
2022/03/28 09:00:23;;;;;;;4.47;2.67;;;;;;;;;;21111340;28;20215;-62
2022/03/28 09:10:27;;;;;;;3.87;2.70;;;;;;;;;;21101801;28;20282;-62
2022/03/28 09:20:29;;;;;;;4.73;2.87;;;;;;;;;;21095098;28;20219;-62
2022/03/28 09:30:33;;;;;;;3.67;2.87;;;;;;;;;;21127140;28;20242;-62
2022/03/28 09:40:35;;;;;;;3.90;2.87;;;;;;;;;;21132113;28;20730;-62
2022/03/28 09:50:41;;;;;;;6.53;2.90;;;17.00;99.90;;;;;;21132563;28;20339;-62
2022/03/28 10:00:49;;;;;;;4.33;2.80;;;17.50;99.90;;;;;;21116012;28;20223;-62
2022/03/28 10:10:51;;;;;;;4.30;2.93;;;;;;;;;;21125996;28;20204;-63
2022/03/28 10:20:54;;;;;;;5.00;2.97;;;;;;;;;;21130436;28;20281;-63
2022/03/28 10:31:16;;;;;;;5.73;3.43;;;18.30;99.90;;;;;;21045688;28;20298;-63
2022/03/28 10:41:19;;;;;;;4.77;3.13;;;;;;;;;;21094689;28;20228;-64
2022/03/28 10:51:24;;;;;;;4.70;3.23;;;;;;;;;;21125911;28;20220;-64
2022/03/28 11:01:34;;;;;;;7.53;3.53;;;19.20;99.90;;;;;;21066924;28;20274;-64
2022/03/28 11:11:36;;;;;;;5.47;3.20;;;;;;;;;;21042712;28;20204;-64
2022/03/28 11:22:04;;;;;;;4.07;2.70;;;19.70;99.90;;;;;;21104068;28;20219;-64
2022/03/28 11:32:06;;;;;;;5.23;3.50;;;;;;;;;;21118642;28;20215;-64
2022/03/28 11:42:09;;;;;;;4.67;3.07;;;;;;;;;;21103799;28;20764;-64
2022/03/28 11:52:11;;;;;;;6.83;3.03;;;;;;;;;;21098859;28;20199;-64
2022/03/28 12:02:13;;;;;;;3.73;2.33;;;;;;;;;;21098830;28;20698;-64
2022/03/28 12:12:15;;;;;;;4.10;2.50;;;;;;;;;;21094875;28;20204;-64
2022/03/28 12:22:21;;;;;;;4.30;2.90;;;;;;;;;;21117070;28;20270;-64
2022/03/28 12:32:24;;;;;;;3.97;2.63;;;20.70;99.90;;;;;;21121817;28;20265;-64
2022/03/28 12:42:27;;;;;;;4.80;2.63;;;21.20;99.90;;;;;;21138604;28;20196;-64
2022/03/28 12:52:31;;;;;;;4.93;3.17;;;20.90;97.70;;;;;;21105113;28;20211;-64
2022/03/28 13:02:34;;;;;;;4.17;2.83;;;;;;;;;;21081258;22;20700;-70
2022/03/28 13:12:40;;;;;;;4.97;2.43;;;21.10;99.10;;;;;;21065547;28;20274;-69
2022/03/28 13:22:45;;;;;;;5.07;2.57;;;;;;;;;;21080441;28;20235;-70
2022/03/28 13:32:47;;;;;;;5.27;2.93;;;;;;;;;;21084227;28;20240;-68
2022/03/28 13:42:49;;;;;;;3.70;2.77;;;;;;;;;;21083673;28;20210;-69
2022/03/28 13:52:51;;;;;;;4.23;2.33;;;;;;;;;;21082904;28;20555;-69
2022/03/28 14:02:53;;;;;;;4.40;2.50;;;;;;;;;;21081860;28;20626;-69
2022/03/28 14:12:54;;;;;;;5.13;2.80;;;;;;;;;;21075116;28;20693;-69
2022/03/28 14:22:56;;;;;;;3.63;2.37;;;20.50;89.60;;;;;;21078705;28;20206;-70
2022/03/28 14:32:59;;;;;;;4.20;2.47;;;;;;;;;;21077838;28;20286;-70
2022/03/28 14:43:00;;;;;;;6.70;3.00;;;;;;;;;;21036392;28;20214;-70
2022/03/28 14:53:06;;;;;;;4.13;2.90;;;20.50;99.90;;;;;;21056291;28;20222;-69
2022/03/28 15:03:08;;;;;;;5.33;2.80;;;;;;;;;;21071094;28;20280;-69
2022/03/28 15:13:10;;;;;;;5.83;2.70;;;;;;;;;;21075180;28;20417;-70
2022/03/28 15:23:11;;;;;;;5.63;2.77;;;;;;;;;;21068869;28;20262;-69
2022/03/28 15:33:13;;;;;;;4.87;3.07;;;;;;;;;;21060732;28;20275;-70
2022/03/28 15:43:15;;;;;;;5.17;3.00;;;;;;;;;;21072635;28;20257;-69
2022/03/28 15:53:19;;;;;;;5.83;3.33;;;21.00;98.70;;;;;;21071151;28;20262;-69
2022/03/28 16:03:20;;;;;;;6.00;3.40;;;;;;;;;;21064170;28;20227;-69
2022/03/28 16:13:22;;;;;;;4.23;2.70;;;;;;;;;;21061447;28;20244;-69
2022/03/28 16:23:25;;;;;;;2.40;1.50;;;20.50;90.00;;;;;;21044361;28;20219;-70
2022/03/28 16:33:27;;;;;;;3.00;1.77;;;;;;;;;;21049602;28;20210;-70
2022/03/28 16:43:29;;;;;;;3.00;1.70;;;;;;;;;;21065288;28;20278;-70
2022/03/28 16:53:31;;;;;;;2.20;1.47;;;;;;;;;;21060868;28;20580;-70
2022/03/28 17:03:33;;;;;;;3.83;2.00;;;;;;;;;;21069100;28;20639;-70
2022/03/28 17:13:35;;;;;;;2.87;1.67;;;;;;;;;;21034148;28;20212;-70
2022/03/28 17:23:37;;;;;;;3.60;2.33;;;;;;;;;;21057758;28;20675;-70
2022/03/28 17:33:38;;;;;;;5.67;1.83;;;;;;;;;;21045604;28;20690;-68
2022/03/28 17:43:40;;;;;;;3.43;1.67;;;;;;;;;;21010324;28;20236;-71
2022/03/28 17:53:42;;;;;;;2.87;1.40;;;;;;;;;;21053512;28;20678;-71
2022/03/28 18:03:44;;;;;;;4.40;1.83;;;;;;;;;;21073794;28;20712;-69
2022/03/28 18:13:46;;;;;;;4.00;1.67;;;;;;;;;;21125619;28;20246;-70
2022/03/28 18:23:48;;;;;;;5.00;1.80;;;;;;;;;;21131090;28;20381;-71
2022/03/28 18:33:49;;;;;;;4.37;1.63;;;;;;;;;;21056708;28;20255;-70
2022/03/28 18:43:52;;;;;;;5.47;2.00;;;;;;;;;;21051503;28;20220;-71
2022/03/28 18:53:55;;;;;;;2.90;1.60;;;;;;;;;;21047084;28;20286;-72
2022/03/28 19:03:57;;;;;;;4.87;1.37;;;;;;;;;;21077251;22;20236;-64
2022/03/28 19:14:02;;;;;;;5.90;2.20;;;17.90;95.90;;;;;;21004661;28;20310;-64
2022/03/28 19:24:06;;;;;;;7.70;1.80;;;;;;;;;;20998740;28;20212;-64
2022/03/28 19:34:08;;;;;;;7.37;2.03;;;;;;;;;;21007892;28;20220;-64
2022/03/28 19:44:10;;;;;;;3.47;1.67;;;;;;;;;;21023186;28;20208;-64
2022/03/28 19:54:12;;;;;;;8.03;1.90;;;;;;;;;;21024833;28;20220;-64
2022/03/28 20:04:14;;;;;;;3.43;2.07;;;;;;;;;;21030606;28;20357;-64
2022/03/28 20:14:17;;;;;;;5.57;2.10;;;;;;;;;;21027636;28;20236;-64
2022/03/28 20:24:19;;;;;;;4.00;2.00;;;;;;;;;;21036948;28;20269;-64
2022/03/28 20:34:20;;;;;;;3.23;1.73;;;;;;;;;;21017863;28;20232;-64
2022/03/28 20:44:23;;;;;;;3.27;1.80;;;;;;;;;;20967494;28;20599;-64
2022/03/28 20:54:25;;;;;;;6.63;2.10;;;16.40;99.90;;;;;;20964723;28;20233;-64
2022/03/28 21:04:27;;;;;;;4.17;2.07;;;;;;;;;;20965090;28;20841;-64
2022/03/28 21:14:29;;;;;;;3.37;2.00;;;;;;;;;;20948368;28;20691;-64
2022/03/28 21:24:31;;;;;;;5.20;2.17;;;;;;;;;;20983069;28;20239;-64
2022/03/28 21:34:33;;;;;;;3.07;1.80;;;;;;;;;;21051767;28;20225;-64
2022/03/28 21:44:36;;;;;;;2.40;1.50;;;;;;;;;;20994870;28;20268;-64
2022/03/28 21:54:37;;;;;;;2.57;1.73;;;;;;;;;;21041278;28;20683;-64
2022/03/28 22:04:39;;;;;;;2.30;1.53;;;;;;;;;;21044841;28;20250;-64
2022/03/28 22:14:41;;;;;;;5.23;1.80;;;;;;;;;;21060500;28;20238;-64
2022/03/28 22:24:43;;;;;;;3.83;1.90;;;;;;;;;;21042793;28;20679;-64
2022/03/28 22:34:45;;;;;;;3.57;2.27;;;;;;;;;;21044207;28;20283;-65
2022/03/28 22:44:47;;;;;;;3.50;2.47;;;;;;;;;;20957845;28;20243;-64
2022/03/28 22:54:50;;;;;;;3.57;2.27;;;;;;;;;;20988006;28;20224;-63
2022/03/28 23:04:52;;;;;;;3.67;2.67;;;;;;;;;;21031242;28;20852;-63
2022/03/28 23:14:53;;;;;;;3.37;2.30;;;;;;;;;;21072592;28;20212;-64
2022/03/28 23:24:55;;;;;;;3.27;2.20;;;;;;;;;;21038081;28;20686;-64
2022/03/28 23:34:57;;;;;;;5.33;2.17;;;;;;;;;;21028839;28;20221;-64
2022/03/28 23:44:59;;;;;;;3.27;1.77;;;;;;;;;;21008564;28;20619;-64
2022/03/28 23:55:01;;;;;;;3.43;2.07;;;;;;;;;;21039649;28;20289;-63
